createdAt,value
2023-05-20T00:02:33.767Z,6.63
2023-05-20T00:05:35.922Z,6.65
2023-05-20T00:08:37.912Z,6.75
2023-05-20T00:11:40.164Z,6.82
2023-05-20T00:14:42.246Z,7.20
2023-05-20T00:17:44.278Z,7.80
2023-05-20T00:20:46.470Z,6.72
2023-05-20T00:23:48.683Z,6.32
2023-05-20T00:26:51.021Z,7.60
2023-05-20T00:29:53.202Z,6.80
2023-05-20T00:32:55.432Z,5.82
2023-05-20T00:35:57.693Z,6.28
2023-05-20T00:38:59.850Z,7.05
2023-05-20T00:42:03.651Z,7.38
2023-05-20T00:45:06.425Z,7.10
2023-05-20T00:48:09.898Z,6.75
2023-05-20T00:51:14.311Z,7.65
2023-05-20T00:54:16.854Z,7.50
2023-05-20T00:57:20.091Z,6.68
2023-05-20T01:00:22.273Z,6.93
2023-05-20T01:03:24.549Z,5.80
2023-05-20T01:06:28.368Z,7.00
2023-05-20T01:09:32.358Z,6.15
2023-05-20T01:12:39.497Z,5.63
2023-05-20T01:15:44.003Z,6.82
2023-05-20T01:18:48.842Z,6.00
2023-05-20T01:21:54.367Z,7.28
2023-05-20T01:24:57.403Z,6.95
2023-05-20T01:28:01.853Z,6.72
2023-05-20T01:31:10.900Z,5.90
2023-05-20T01:34:15.728Z,6.00
2023-05-20T01:37:19.650Z,7.53
2023-05-20T01:40:23.777Z,6.68
2023-05-20T01:43:27.937Z,6.57
2023-05-20T01:46:34.665Z,6.28
2023-05-20T01:49:37.827Z,6.05
2023-05-20T01:52:40.539Z,5.60
2023-05-20T01:55:42.656Z,5.75
2023-05-20T01:58:44.779Z,5.60
2023-05-20T02:01:46.936Z,6.07
2023-05-20T02:04:52.171Z,6.57
2023-05-20T02:07:54.293Z,5.80
2023-05-20T02:10:56.478Z,6.05
2023-05-20T02:13:58.560Z,6.35
2023-05-20T02:17:01.289Z,6.65
2023-05-20T02:20:06.400Z,7.03
2023-05-20T02:23:09.557Z,7.28
2023-05-20T02:26:12.181Z,7.45
2023-05-20T02:29:14.202Z,7.45
2023-05-20T02:32:16.775Z,6.88
2023-05-20T02:35:18.740Z,7.10
2023-05-20T02:38:22.107Z,7.15
2023-05-20T02:41:24.299Z,6.13
2023-05-20T02:44:26.478Z,7.22
2023-05-20T02:47:30.170Z,7.50
2023-05-20T02:50:32.246Z,7.25
2023-05-20T02:53:34.341Z,7.40
2023-05-20T02:56:36.617Z,6.13
2023-05-20T02:59:39.171Z,8.02
2023-05-20T03:02:41.320Z,6.70
2023-05-20T03:05:46.104Z,6.78
2023-05-20T03:08:48.232Z,5.78
2023-05-20T03:11:50.544Z,7.30
2023-05-20T03:14:55.579Z,6.85
2023-05-20T03:17:58.202Z,6.75
2023-05-20T03:21:00.535Z,6.32
2023-05-20T03:24:02.737Z,7.28
2023-05-20T03:27:05.049Z,8.63
2023-05-20T03:30:09.796Z,8.63
2023-05-20T03:33:12.109Z,8.15
2023-05-20T03:36:14.534Z,7.82
2023-05-20T03:39:16.679Z,7.70
2023-05-20T03:42:20.554Z,8.45
2023-05-20T03:45:22.856Z,7.32
2023-05-20T03:48:35.107Z,6.80
2023-05-20T03:51:37.308Z,7.93
2023-05-20T03:54:44.821Z,6.53
2023-05-20T03:57:47.268Z,8.45
2023-05-20T04:00:49.915Z,7.38
2023-05-20T04:03:52.183Z,8.27
2023-05-20T04:06:54.707Z,7.40
2023-05-20T04:09:56.892Z,7.45
2023-05-20T04:12:59.100Z,7.35
2023-05-20T04:16:02.110Z,6.68
2023-05-20T04:19:05.366Z,8.05
2023-05-20T04:22:07.636Z,6.22
2023-05-20T04:25:10.096Z,7.93
2023-05-20T04:28:14.251Z,7.50
2023-05-20T04:31:17.608Z,9.25
2023-05-20T04:34:20.499Z,8.43
2023-05-20T04:37:22.761Z,7.35
2023-05-20T04:40:25.454Z,9.10
2023-05-20T04:43:30.408Z,8.73
2023-05-20T04:46:34.107Z,9.30
2023-05-20T04:49:36.943Z,7.85
2023-05-20T04:52:39.721Z,7.30
2023-05-20T04:55:42.003Z,7.72
2023-05-20T04:58:44.401Z,8.88
2023-05-20T05:01:46.454Z,7.00
2023-05-20T05:04:49.451Z,7.30
2023-05-20T05:07:55.301Z,8.40
2023-05-20T05:11:10.495Z,9.10
2023-05-20T05:14:16.008Z,9.88
2023-05-20T05:17:20.485Z,8.00
2023-05-20T05:20:22.955Z,9.95
2023-05-20T05:23:25.432Z,9.18
2023-05-20T05:26:28.351Z,9.00
2023-05-20T05:29:31.093Z,8.20
2023-05-20T05:32:34.038Z,7.30
2023-05-20T05:35:36.430Z,8.38
2023-05-20T05:38:39.197Z,8.18
2023-05-20T05:41:41.987Z,8.27
2023-05-20T05:44:44.841Z,9.90
2023-05-20T05:47:47.043Z,10.30
2023-05-20T05:50:50.068Z,8.82
2023-05-20T05:53:53.918Z,14.05
2023-05-20T05:56:59.254Z,6.90
2023-05-20T06:00:04.895Z,6.57
2023-05-20T06:03:20.146Z,7.82
2023-05-20T06:06:23.637Z,9.32
2023-05-20T06:09:25.755Z,8.18
2023-05-20T06:12:28.392Z,11.63
2023-05-20T06:15:30.522Z,10.75
2023-05-20T06:18:32.896Z,16.85
2023-05-20T06:21:39.272Z,26.05
2023-05-20T06:24:41.660Z,16.55
2023-05-20T06:27:43.817Z,11.25
2023-05-20T06:30:51.330Z,15.38
2023-05-20T06:33:53.445Z,8.80
2023-05-20T06:36:57.478Z,9.70
2023-05-20T06:39:59.530Z,9.00
2023-05-20T06:43:01.974Z,10.13
2023-05-20T06:46:36.272Z,10.40
2023-05-20T06:49:47.502Z,10.80
2023-05-20T06:52:52.690Z,10.07
2023-05-20T06:55:58.042Z,10.45
2023-05-20T06:59:01.371Z,12.35
2023-05-20T07:02:05.874Z,10.88
2023-05-20T07:05:10.947Z,12.02
2023-05-20T07:08:13.111Z,17.00
2023-05-20T07:11:16.328Z,10.93
2023-05-20T07:14:20.126Z,10.27
2023-05-20T07:17:30.316Z,11.20
2023-05-20T07:20:32.562Z,9.75
2023-05-20T07:23:42.024Z,8.65
2023-05-20T07:26:47.174Z,9.00
2023-05-20T07:29:57.264Z,11.25
2023-05-20T07:33:00.090Z,8.73
2023-05-20T07:36:02.446Z,10.00
2023-05-20T07:39:16.920Z,8.75
2023-05-20T07:42:20.374Z,9.65
2023-05-20T07:45:25.338Z,7.43
2023-05-20T07:48:33.322Z,9.75
2023-05-20T07:51:35.649Z,10.70
2023-05-20T07:54:37.824Z,8.27
2023-05-20T07:57:41.667Z,9.13
2023-05-20T08:00:45.913Z,8.30
2023-05-20T08:03:54.954Z,8.57
2023-05-20T08:10:15.309Z,8.30
2023-05-20T08:13:19.303Z,7.53
2023-05-20T08:16:22.118Z,9.18
2023-05-20T08:19:24.630Z,8.68
2023-05-20T08:22:26.978Z,8.57
2023-05-20T08:25:30.203Z,9.05
2023-05-20T08:28:33.449Z,9.15
2023-05-20T08:31:36.157Z,9.68
2023-05-20T08:34:38.469Z,7.43
2023-05-20T08:37:41.673Z,8.07
2023-05-20T08:40:44.461Z,8.80
2023-05-20T08:43:47.303Z,8.93
2023-05-20T08:46:52.159Z,10.55
2023-05-20T08:49:54.662Z,7.60
2023-05-20T08:52:56.821Z,7.35
2023-05-20T08:56:03.848Z,7.72
2023-05-20T08:59:09.015Z,7.10
2023-05-20T09:02:13.550Z,7.40
2023-05-20T09:05:15.948Z,8.88
2023-05-20T09:08:18.296Z,8.73
2023-05-20T09:11:23.126Z,9.60
2023-05-20T09:14:27.400Z,6.18
2023-05-20T09:17:29.628Z,9.15
2023-05-20T09:20:34.637Z,9.73
2023-05-20T09:23:39.484Z,8.65
2023-05-20T09:26:41.558Z,8.15
2023-05-20T09:29:46.471Z,8.82
2023-05-20T09:33:00.243Z,7.53
2023-05-20T09:36:08.713Z,8.40
2023-05-20T09:39:17.335Z,7.97
2023-05-20T09:42:26.483Z,10.52
2023-05-20T09:45:28.878Z,9.55
2023-05-20T09:48:34.367Z,8.13
2023-05-20T09:51:37.160Z,6.78
2023-05-20T09:54:39.597Z,6.72
2023-05-20T09:57:42.403Z,11.77
2023-05-20T10:00:44.643Z,11.13
2023-05-20T10:03:47.094Z,6.97
2023-05-20T10:07:15.390Z,9.27
2023-05-20T10:10:26.455Z,8.88
2023-05-20T10:13:37.392Z,6.40
2023-05-20T10:17:08.008Z,6.90
2023-05-20T10:20:12.264Z,8.35
2023-05-20T10:23:24.681Z,10.55
2023-05-20T10:26:38.576Z,7.50
2023-05-20T10:29:53.973Z,7.25
2023-05-20T10:33:01.222Z,8.90
2023-05-20T10:36:03.954Z,8.97
2023-05-20T10:39:06.053Z,8.13
2023-05-20T10:42:12.057Z,8.93
2023-05-20T10:45:26.652Z,9.43
2023-05-20T10:48:42.515Z,8.00
2023-05-20T10:51:46.807Z,6.60
2023-05-20T10:54:57.396Z,8.25
2023-05-20T10:58:00.021Z,8.32
2023-05-20T11:01:03.655Z,7.57
2023-05-20T11:04:06.929Z,6.22
2023-05-20T11:07:09.527Z,6.72
2023-05-20T11:10:13.030Z,6.78
2023-05-20T11:13:15.710Z,6.32
2023-05-20T11:16:17.908Z,6.32
2023-05-20T11:19:20.640Z,8.35
2023-05-20T11:22:23.344Z,6.63
2023-05-20T11:25:25.506Z,6.28
2023-05-20T11:28:27.648Z,5.45
2023-05-20T11:31:29.775Z,4.95
2023-05-20T11:34:36.951Z,6.00
2023-05-20T11:37:39.136Z,6.72
2023-05-20T11:40:50.587Z,7.18
2023-05-20T11:44:00.635Z,10.40
2023-05-20T11:47:03.954Z,8.70
2023-05-20T11:50:06.894Z,7.25
2023-05-20T11:53:11.310Z,7.55
2023-05-20T11:56:14.894Z,9.07
2023-05-20T11:59:17.021Z,6.07
2023-05-20T12:02:19.253Z,5.63
2023-05-20T12:05:21.547Z,8.68
2023-05-20T12:08:23.629Z,5.97
2023-05-20T12:11:26.046Z,6.57
2023-05-20T12:14:28.119Z,5.57
2023-05-20T12:17:30.360Z,6.72
2023-05-20T12:20:34.679Z,6.72
2023-05-20T12:23:36.975Z,7.50
2023-05-20T12:26:39.178Z,6.05
2023-05-20T12:29:41.429Z,5.15
2023-05-20T12:32:44.254Z,6.60
2023-05-20T12:35:46.968Z,6.38
2023-05-20T12:38:49.219Z,5.50
2023-05-20T12:41:51.584Z,4.97
2023-05-20T12:44:53.654Z,5.07
2023-05-20T12:47:57.674Z,4.75
2023-05-20T12:51:00.344Z,10.23
2023-05-20T12:54:02.424Z,4.85
2023-05-20T12:57:05.471Z,5.63
2023-05-20T13:00:08.720Z,6.82
2023-05-20T13:03:11.626Z,8.18
2023-05-20T13:06:13.859Z,7.38
2023-05-20T13:09:16.180Z,8.32
2023-05-20T13:12:18.386Z,6.32
2023-05-20T13:15:20.492Z,7.10
2023-05-20T13:18:22.695Z,5.90
2023-05-20T13:21:24.691Z,6.32
2023-05-20T13:24:27.349Z,7.05
2023-05-20T13:27:29.536Z,4.93
2023-05-20T13:30:32.810Z,7.32
2023-05-20T13:33:35.150Z,5.30
2023-05-20T13:36:37.176Z,4.38
2023-05-20T13:39:39.247Z,6.53
2023-05-20T13:42:41.321Z,4.55
2023-05-20T13:45:43.547Z,6.30
2023-05-20T13:48:45.827Z,5.30
2023-05-20T13:51:48.031Z,6.15
2023-05-20T13:55:39.904Z,5.65
2023-05-20T13:58:45.286Z,6.90
2023-05-20T14:01:47.618Z,4.30
2023-05-20T14:04:49.841Z,5.18
2023-05-20T14:07:52.014Z,3.75
2023-05-20T14:10:55.561Z,4.18
2023-05-20T14:14:00.527Z,4.85
2023-05-20T14:17:02.638Z,5.15
2023-05-20T14:20:06.733Z,4.38
2023-05-20T14:23:09.358Z,5.15
2023-05-20T14:26:12.579Z,7.60
2023-05-20T14:29:15.442Z,6.35
2023-05-20T14:32:17.842Z,5.68
2023-05-20T14:35:20.277Z,5.90
2023-05-20T14:38:22.626Z,5.03
2023-05-20T14:41:24.761Z,3.47
2023-05-20T14:44:26.913Z,7.82
2023-05-20T14:47:29.306Z,6.95
2023-05-20T14:50:31.782Z,9.00
2023-05-20T14:53:37.078Z,5.07
2023-05-20T14:56:39.109Z,10.40
2023-05-20T14:59:41.350Z,4.97
2023-05-20T15:02:43.437Z,10.43
2023-05-20T15:05:45.741Z,6.70
2023-05-20T15:08:48.747Z,13.65
2023-05-20T15:11:51.074Z,6.95
2023-05-20T15:14:54.710Z,6.45
2023-05-20T15:17:56.920Z,7.43
2023-05-20T15:21:00.953Z,7.85
2023-05-20T15:24:03.304Z,6.53
2023-05-20T15:27:05.850Z,9.52
2023-05-20T15:30:08.563Z,9.98
2023-05-20T15:33:11.020Z,14.38
2023-05-20T15:36:13.190Z,10.55
2023-05-20T15:39:15.464Z,10.35
2023-05-20T15:42:18.815Z,10.60
2023-05-20T15:45:21.184Z,14.13
2023-05-20T15:48:23.838Z,8.48
2023-05-20T15:51:26.315Z,6.53
2023-05-20T15:54:29.899Z,8.45
2023-05-20T15:57:32.276Z,7.88
2023-05-20T16:00:34.891Z,5.47
2023-05-20T16:03:37.440Z,5.15
2023-05-20T16:06:40.161Z,7.35
2023-05-20T16:09:42.994Z,8.90
2023-05-20T16:12:46.594Z,9.20
2023-05-20T16:15:50.144Z,8.10
2023-05-20T16:18:53.157Z,7.18
2023-05-20T16:21:55.278Z,6.22
2023-05-20T16:24:57.332Z,5.57
2023-05-20T16:28:02.648Z,4.60
2023-05-20T16:31:06.506Z,4.50
2023-05-20T16:34:08.646Z,5.80
2023-05-20T16:37:10.996Z,9.77
2023-05-20T16:40:13.434Z,6.47
2023-05-20T16:43:15.600Z,10.35
2023-05-20T16:46:17.887Z,6.78
2023-05-20T16:49:22.460Z,5.05
2023-05-20T16:52:24.956Z,5.53
2023-05-20T16:55:27.315Z,10.55
2023-05-20T16:58:31.659Z,5.25
2023-05-20T17:01:36.115Z,8.48
2023-05-20T17:04:52.361Z,5.00
2023-05-20T17:08:00.428Z,6.43
2023-05-20T17:11:05.227Z,6.25
2023-05-20T17:14:07.329Z,11.13
2023-05-20T17:17:15.175Z,8.65
2023-05-20T17:20:17.671Z,8.90
2023-05-20T17:23:23.733Z,6.63
2023-05-20T17:26:29.870Z,5.38
2023-05-20T17:29:39.884Z,6.55
2023-05-20T17:32:42.052Z,3.80
2023-05-20T17:35:49.384Z,5.38
2023-05-20T17:38:51.791Z,7.07
2023-05-20T17:41:53.932Z,4.45
2023-05-20T17:44:56.351Z,6.78
2023-05-20T17:47:58.578Z,3.75
2023-05-20T17:54:20.948Z,4.78
2023-05-20T17:57:23.033Z,5.32
2023-05-20T18:00:27.216Z,7.72
2023-05-20T18:03:29.701Z,4.07
2023-05-20T18:06:34.752Z,4.03
2023-05-20T18:09:37.021Z,3.38
2023-05-20T18:13:04.308Z,4.25
2023-05-20T18:16:09.285Z,4.70
2023-05-20T18:19:12.995Z,4.88
2023-05-20T18:22:16.541Z,5.00
2023-05-20T18:25:22.732Z,4.57
2023-05-20T18:28:41.086Z,3.45
2023-05-20T18:31:45.084Z,2.85
2023-05-20T18:34:47.677Z,3.60
2023-05-20T18:37:52.283Z,3.88
2023-05-20T18:40:56.942Z,3.00
2023-05-20T18:43:59.065Z,3.75
2023-05-20T18:47:03.936Z,3.45
2023-05-20T18:50:11.015Z,3.75
2023-05-20T18:53:14.125Z,4.47
2023-05-20T18:56:19.945Z,4.13
2023-05-20T18:59:25.136Z,4.38
2023-05-20T19:02:28.925Z,4.30
2023-05-20T19:05:33.484Z,3.90
2023-05-20T19:08:36.606Z,3.10
2023-05-20T19:11:38.717Z,3.53
2023-05-20T19:14:41.739Z,2.55
2023-05-20T19:17:45.141Z,3.35
2023-05-20T19:20:47.187Z,4.93
2023-05-20T19:23:50.418Z,3.97
2023-05-20T19:26:52.679Z,7.35
2023-05-20T19:30:00.837Z,5.13
2023-05-20T19:33:13.732Z,3.40
2023-05-20T19:36:17.482Z,4.65
2023-05-20T19:39:21.246Z,4.72
2023-05-20T19:42:25.142Z,5.15
2023-05-20T19:45:27.726Z,2.65
2023-05-20T19:48:30.965Z,3.50
2023-05-20T19:51:35.752Z,2.63
2023-05-20T19:54:37.877Z,3.00
2023-05-20T19:57:41.345Z,4.15
2023-05-20T20:00:45.682Z,4.75
2023-05-20T20:03:51.096Z,4.13
2023-05-20T20:06:55.272Z,2.95
2023-05-20T20:09:58.420Z,3.67
2023-05-20T20:13:03.965Z,2.75
2023-05-20T20:16:11.678Z,4.32
2023-05-20T20:19:48.895Z,5.88
2023-05-20T20:23:13.867Z,4.45
2023-05-20T20:26:23.641Z,3.72
2023-05-20T20:29:26.474Z,3.95
2023-05-20T20:32:29.181Z,9.88
2023-05-20T20:35:32.447Z,4.35
2023-05-20T20:38:34.656Z,4.35
2023-05-20T20:41:39.077Z,4.68
2023-05-20T20:44:58.172Z,3.30
2023-05-20T20:48:05.713Z,3.17
2023-05-20T20:51:09.170Z,3.67
2023-05-20T20:54:11.437Z,4.93
2023-05-20T20:57:14.043Z,4.57
2023-05-20T21:00:17.713Z,4.68
2023-05-20T21:03:24.125Z,4.10
2023-05-20T21:06:26.349Z,3.92
2023-05-20T21:09:29.007Z,5.30
2023-05-20T21:12:31.060Z,4.55
2023-05-20T21:15:33.197Z,5.28
2023-05-20T21:18:35.625Z,4.28
2023-05-20T21:21:39.893Z,4.82
2023-05-20T21:24:43.444Z,3.75
2023-05-20T21:27:46.468Z,5.20
2023-05-20T21:30:48.748Z,3.90
2023-05-20T21:33:51.001Z,2.90
2023-05-20T21:36:53.183Z,3.50
2023-05-20T21:39:55.296Z,4.18
2023-05-20T21:42:57.458Z,3.45
2023-05-20T21:45:59.983Z,3.40
2023-05-20T21:49:04.837Z,4.38
2023-05-20T21:52:07.686Z,3.92
2023-05-20T21:55:11.385Z,4.05
2023-05-20T21:58:15.221Z,5.03
2023-05-20T22:01:17.345Z,5.28
2023-05-20T22:04:19.816Z,4.57
2023-05-20T22:07:22.319Z,3.97
2023-05-20T22:10:26.948Z,3.47
2023-05-20T22:13:31.110Z,4.25
2023-05-20T22:16:35.456Z,4.03
2023-05-20T22:19:39.334Z,3.78
2023-05-20T22:22:41.435Z,4.82
2023-05-20T22:25:43.557Z,4.43
2023-05-20T22:28:46.284Z,5.18
2023-05-20T22:31:48.582Z,4.72
2023-05-20T22:34:53.705Z,3.95
2023-05-20T22:37:57.520Z,3.83
2023-05-20T22:40:59.682Z,3.80
2023-05-20T22:44:01.976Z,4.30
2023-05-20T22:47:04.222Z,3.75
2023-05-20T22:50:07.586Z,4.82
2023-05-20T22:53:09.746Z,4.72
2023-05-20T22:56:11.900Z,4.68
2023-05-20T22:59:14.140Z,5.60
2023-05-20T23:02:16.332Z,5.57
2023-05-20T23:05:18.424Z,5.07
2023-05-20T23:08:21.286Z,5.28
2023-05-20T23:11:24.050Z,4.40
2023-05-20T23:14:26.402Z,4.57
2023-05-20T23:17:28.593Z,4.65
2023-05-20T23:20:30.741Z,5.90
2023-05-20T23:23:32.878Z,4.35
2023-05-20T23:26:37.844Z,3.97
2023-05-20T23:29:40.559Z,4.88
2023-05-20T23:32:42.857Z,4.00
2023-05-20T23:35:45.037Z,5.20
2023-05-20T23:38:47.357Z,5.05
2023-05-20T23:41:49.522Z,4.18
2023-05-20T23:44:52.245Z,4.75
2023-05-20T23:47:55.782Z,4.15
2023-05-20T23:50:58.197Z,5.38
2023-05-20T23:54:00.890Z,4.25
2023-05-20T23:57:03.071Z,4.38
